»·PEaware :: BOE561 KBUR-KPHX

BOE561 :: KBUR-KPHX

FLIGHT INFORMATION

Flight Status: Arrived
Operator:
Boeing Commercial Airplane Group
More flights by this operator :: More flights under this callsign
Pilot: Ben F. (2808)
Aircraft: BOEING 737-200
(B732)
More flights by this aircraft type
Origin: KBUR Bob Hope-Burbank
United States
Destination: KPHX Phoenix Sky Harbor Intl
United States
More flights between these airports :: More routes between these airports
Route: VNY3 PMD J65 BLH ARLIN4
File this flight plan on PilotEdge
Remarks:
Altitude:
(Current/Filed)
29,000ft
Speed:
(Current/Filed)
442kts
Departed: 16-Nov-18 09:52 AM
Arrived: 16-Nov-18 10:54 AM
Distance/Time
Traveled:
319nm/1:02
Distance/Time
To Go:
Arrived

Flight Plot

Page will automatically refresh every two minutes.

Flight plan parsing failed; only flown route is shown


Map Options




Map Legend


Flown Route
Filed Route
Departure Airport
Arrival Airport
Navaid (VOR, NDB)
Fix

Horizontal Profiles

Position Reports

Time Latitude Longitude Heading Altitude Ground
Speed
16-Nov-18 09:27 34.200035 -118.358592 263 785ft 0kts
16-Nov-18 09:28 34.200035 -118.358592 263 785ft 0kts
16-Nov-18 09:29 34.200035 -118.358592 263 785ft 0kts
16-Nov-18 09:30 34.200035 -118.358592 263 785ft 0kts
16-Nov-18 09:31 34.200035 -118.358592 263 785ft 0kts
16-Nov-18 09:32 34.200035 -118.358592 263 785ft 0kts
16-Nov-18 09:33 34.200035 -118.358592 263 785ft 0kts
16-Nov-18 09:34 34.200035 -118.358592 263 785ft 0kts
16-Nov-18 09:35 34.200035 -118.358592 263 785ft 0kts
16-Nov-18 09:36 34.200035 -118.358592 263 785ft 0kts
16-Nov-18 09:37 34.200035 -118.358592 263 785ft 0kts
16-Nov-18 09:38 34.200035 -118.358592 263 785ft 0kts
16-Nov-18 09:39 34.200035 -118.358592 263 785ft 0kts
16-Nov-18 09:40 34.200035 -118.358592 263 785ft 0kts
16-Nov-18 09:41 34.200035 -118.358592 263 785ft 0kts
16-Nov-18 09:42 34.200035 -118.358592 263 785ft 0kts
16-Nov-18 09:43 34.200035 -118.358592 263 785ft 0kts
16-Nov-18 09:44 34.200035 -118.358592 263 785ft 0kts
16-Nov-18 09:45 34.200035 -118.358592 263 785ft 0kts
16-Nov-18 09:46 34.200035 -118.358592 263 785ft 0kts
16-Nov-18 09:47 34.200036 -118.358592 263 785ft 0kts
16-Nov-18 09:48 34.200035 -118.358593 263 785ft 0kts
16-Nov-18 09:49 34.199651 -118.358610 112 785ft 0kts
16-Nov-18 09:50 34.202528 -118.358900 346 785ft 17kts
16-Nov-18 09:51 34.207340 -118.360224 347 785ft 17kts
16-Nov-18 09:52 34.211896 -118.361390 21 785ft 8kts
16-Nov-18 09:53 34.211953 -118.361353 33 785ft 0kts
16-Nov-18 09:54 34.211787 -118.360326 166 785ft 3kts
16-Nov-18 09:55 34.196193 -118.356044 168 931ft 165kts
16-Nov-18 09:56 34.159277 -118.381341 251 3861ft 160kts
16-Nov-18 09:57 34.191906 -118.405576 0 5821ft 190kts
16-Nov-18 09:58 34.248497 -118.404026 2 8170ft 226kts
16-Nov-18 09:59 34.317062 -118.401237 2 10069ft 282kts
16-Nov-18 10:00 34.403321 -118.402134 349 12064ft 322kts
16-Nov-18 10:01 34.482974 -118.358491 64 13971ft 352kts
16-Nov-18 10:02 34.524233 -118.248563 57 15064ft 383kts
16-Nov-18 10:03 34.583208 -118.143344 52 16053ft 364kts
16-Nov-18 10:04 34.615951 -118.030247 100 17655ft 386kts
16-Nov-18 10:05 34.583935 -117.905513 107 19491ft 393kts
16-Nov-18 10:06 34.546774 -117.779458 108 20908ft 404kts
16-Nov-18 10:07 34.508005 -117.650187 108 22159ft 413kts
16-Nov-18 10:08 34.468149 -117.518040 109 23271ft 421kts
16-Nov-18 10:09 34.427563 -117.384088 109 24259ft 429kts
16-Nov-18 10:10 34.388343 -117.255211 110 25160ft 432kts
16-Nov-18 10:11 34.346728 -117.119118 110 26091ft 433kts
16-Nov-18 10:12 34.304866 -116.982836 110 26888ft 435kts
16-Nov-18 10:13 34.262459 -116.845396 110 27572ft 438kts
16-Nov-18 10:14 34.219772 -116.707681 110 28211ft 441kts
16-Nov-18 10:15 34.176450 -116.568575 110 28647ft 446kts
16-Nov-18 10:16 34.132735 -116.428851 110 29145ft 449kts
16-Nov-18 10:17 34.088831 -116.289207 110 29149ft 453kts
16-Nov-18 10:18 34.044079 -116.147506 110 29182ft 455kts
16-Nov-18 10:19 33.998755 -116.004657 110 29183ft 458kts
16-Nov-18 10:20 33.953094 -115.861421 110 29210ft 460kts
16-Nov-18 10:21 33.907064 -115.717706 110 29210ft 461kts
16-Nov-18 10:22 33.862441 -115.579040 111 29210ft 463kts
16-Nov-18 10:23 33.815801 -115.434675 110 29210ft 464kts
16-Nov-18 10:24 33.771241 -115.296883 111 29152ft 466kts
16-Nov-18 10:25 33.724330 -115.152047 111 29100ft 467kts
16-Nov-18 10:26 33.677203 -115.007154 111 29101ft 466kts
16-Nov-18 10:27 33.630097 -114.863103 110 29101ft 466kts
16-Nov-18 10:28 33.590121 -114.724097 102 29104ft 464kts
16-Nov-18 10:29 33.560776 -114.575608 102 27942ft 456kts
16-Nov-18 10:30 33.532517 -114.431024 101 26071ft 439kts
16-Nov-18 10:31 33.505766 -114.294988 102 24259ft 424kts
16-Nov-18 10:32 33.479175 -114.160520 102 23111ft 425kts
16-Nov-18 10:33 33.451154 -114.020083 102 23102ft 444kts
16-Nov-18 10:34 33.422250 -113.876681 102 23101ft 446kts
16-Nov-18 10:35 33.393589 -113.735404 102 22992ft 413kts
16-Nov-18 10:36 33.367317 -113.606573 102 20568ft 394kts
16-Nov-18 10:37 33.342089 -113.483572 101 18477ft 371kts
16-Nov-18 10:38 33.318104 -113.367148 102 16329ft 355kts
16-Nov-18 10:39 33.295357 -113.257305 102 14294ft 343kts
16-Nov-18 10:40 33.274559 -113.148453 91 12237ft 331kts
16-Nov-18 10:41 33.276052 -113.043940 88 12006ft 309kts
16-Nov-18 10:42 33.278071 -112.945237 88 12002ft 285kts
16-Nov-18 10:43 33.280047 -112.851003 88 12008ft 285kts
16-Nov-18 10:44 33.326991 -112.778309 41 10461ft 287kts
16-Nov-18 10:45 33.374818 -112.707028 60 8511ft 274kts
16-Nov-18 10:46 33.413330 -112.630503 60 6518ft 264kts
16-Nov-18 10:47 33.448786 -112.559517 73 5983ft 223kts
16-Nov-18 10:48 33.442175 -112.489466 100 6009ft 220kts
16-Nov-18 10:49 33.435128 -112.418904 99 5994ft 207kts
16-Nov-18 10:50 33.430343 -112.351670 93 6002ft 202kts
16-Nov-18 10:51 33.428969 -112.289709 91 5470ft 193kts
16-Nov-18 10:52 33.428768 -112.227416 90 4473ft 178kts
16-Nov-18 10:53 33.428800 -112.170210 90 3528ft 162kts
16-Nov-18 10:54 33.428851 -112.122472 89 2721ft 137kts
16-Nov-18 10:55 33.428867 -112.077764 89 1997ft 133kts
16-Nov-18 10:56 33.428825 -112.034171 88 1288ft 130kts
16-Nov-18 10:57 33.429476 -112.007760 45 1143ft 15kts
16-Nov-18 10:58 33.429919 -112.006928 76 1143ft 0kts
16-Nov-18 10:59 33.429893 -112.005238 115 1143ft 17kts
16-Nov-18 11:00 33.427751 -112.010719 271 1143ft 33kts
16-Nov-18 11:01 33.427787 -112.020599 267 1143ft 13kts
16-Nov-18 11:02 33.426161 -112.020770 106 1143ft 8kts
16-Nov-18 11:03 33.425753 -112.020986 270 1143ft 0kts
16-Nov-18 11:04 33.425753 -112.020986 270 1143ft 0kts

Navigation Log

Ident Type
Flight plan parsing failed, navigation log unavailable